createdAt,value
2018-08-07T00:00:33.343Z,22.39
2018-08-07T00:01:33.334Z,22.46
2018-08-07T00:02:33.323Z,22.46
2018-08-07T00:03:33.321Z,22.41
2018-08-07T00:04:33.295Z,22.31
2018-08-07T00:05:33.309Z,22.27
2018-08-07T00:06:33.279Z,22.17
2018-08-07T00:07:33.264Z,22.16
2018-08-07T00:08:33.258Z,22.07
2018-08-07T00:09:33.241Z,22.09
2018-08-07T00:10:33.235Z,22.04
2018-08-07T00:11:33.213Z,22.09
2018-08-07T00:12:33.206Z,21.98
2018-08-07T00:13:33.204Z,21.97
2018-08-07T00:14:33.188Z,21.78
2018-08-07T00:15:33.170Z,21.74
2018-08-07T00:16:33.166Z,21.51
2018-08-07T00:17:33.157Z,21.39
2018-08-07T00:18:33.134Z,21.35
2018-08-07T00:19:33.128Z,21.30
2018-08-07T00:20:33.112Z,21.24
2018-08-07T00:21:33.099Z,21.05
2018-08-07T00:22:33.089Z,20.96
2018-08-07T00:23:33.081Z,20.93
2018-08-07T00:24:33.068Z,20.95
2018-08-07T00:25:33.061Z,20.83
2018-08-07T00:26:33.051Z,20.83
2018-08-07T00:27:33.033Z,20.80
2018-08-07T00:28:33.020Z,20.68
2018-08-07T00:29:33.006Z,20.68
2018-08-07T00:30:33.003Z,20.72
2018-08-07T00:31:32.990Z,20.81
2018-08-07T00:32:32.981Z,20.79
2018-08-07T00:33:32.971Z,20.86
2018-08-07T00:34:32.949Z,20.96
2018-08-07T00:35:32.943Z,21.01
2018-08-07T00:36:32.927Z,20.93
2018-08-07T00:37:32.914Z,20.98
2018-08-07T00:38:32.901Z,20.95
2018-08-07T00:39:32.891Z,20.99
2018-08-07T00:40:32.879Z,20.89
2018-08-07T00:41:32.882Z,20.87
2018-08-07T00:42:32.860Z,20.79
2018-08-07T00:43:32.864Z,20.69
2018-08-07T00:44:32.834Z,20.69
2018-08-07T00:45:32.828Z,20.56
2018-08-07T00:46:32.816Z,20.47
2018-08-07T00:47:32.804Z,20.27
2018-08-07T00:48:32.795Z,20.20
2018-08-07T00:49:32.779Z,20.12
2018-08-07T00:50:32.760Z,19.94
2018-08-07T00:51:32.757Z,19.91
2018-08-07T00:52:32.735Z,19.84
2018-08-07T00:53:32.731Z,19.76
2018-08-07T00:54:32.712Z,19.65
2018-08-07T00:55:32.703Z,19.78
2018-08-07T00:56:32.693Z,19.78
2018-08-07T00:57:32.684Z,19.80
2018-08-07T00:58:32.664Z,19.69
2018-08-07T00:59:32.667Z,19.76
2018-08-07T01:00:32.646Z,19.80
2018-08-07T01:01:32.626Z,19.69
2018-08-07T01:02:32.619Z,19.69
2018-08-07T01:03:32.607Z,19.68
2018-08-07T01:04:32.607Z,19.63
2018-08-07T01:05:32.597Z,19.58
2018-08-07T01:06:32.569Z,19.51
2018-08-07T01:07:32.569Z,19.51
2018-08-07T01:08:32.561Z,19.48
2018-08-07T01:09:32.531Z,19.47
2018-08-07T01:10:32.521Z,19.42
2018-08-07T01:11:32.511Z,19.42
2018-08-07T01:12:32.496Z,19.32
2018-08-07T01:13:32.511Z,19.31
2018-08-07T01:14:32.478Z,19.29
2018-08-07T01:15:32.457Z,19.35
2018-08-07T01:16:32.457Z,19.31
2018-08-07T01:17:32.444Z,19.18
2018-08-07T01:18:32.422Z,19.15
2018-08-07T01:19:32.406Z,19.13
2018-08-07T01:20:32.396Z,19.15
2018-08-07T01:21:32.377Z,19.08
2018-08-07T01:22:32.371Z,19.17
2018-08-07T01:23:32.356Z,19.18
2018-08-07T01:24:32.371Z,19.18
2018-08-07T01:25:32.337Z,19.10
2018-08-07T01:26:32.314Z,19.13
2018-08-07T01:27:32.308Z,18.98
2018-08-07T01:28:32.294Z,18.95
2018-08-07T01:29:32.280Z,18.82
2018-08-07T01:30:32.278Z,18.84
2018-08-07T01:31:32.260Z,18.74
2018-08-07T01:32:32.244Z,18.77
2018-08-07T01:33:32.225Z,18.77
2018-08-07T01:34:32.215Z,18.79
2018-08-07T01:35:32.205Z,18.79
2018-08-07T01:36:32.193Z,18.72
2018-08-07T01:37:32.180Z,18.74
2018-08-07T01:38:32.169Z,18.79
2018-08-07T01:39:32.150Z,18.68
2018-08-07T01:40:32.140Z,18.67
2018-08-07T01:41:32.121Z,18.70
2018-08-07T01:42:32.108Z,18.76
2018-08-07T01:43:32.096Z,18.73
2018-08-07T01:44:32.086Z,18.67
2018-08-07T01:45:32.116Z,18.65
2018-08-07T01:46:32.073Z,18.76
2018-08-07T01:47:32.048Z,18.64
2018-08-07T01:48:32.038Z,18.47
2018-08-07T01:49:32.029Z,18.55
2018-08-07T01:50:32.017Z,18.50
2018-08-07T01:51:31.996Z,18.65
2018-08-07T01:52:31.977Z,18.68
2018-08-07T01:53:31.969Z,18.67
2018-08-07T01:54:31.963Z,18.65
2018-08-07T01:55:31.946Z,18.54
2018-08-07T01:56:31.933Z,18.44
2018-08-07T01:57:31.920Z,18.43
2018-08-07T01:58:31.901Z,18.43
2018-08-07T01:59:31.904Z,18.39
2018-08-07T02:00:31.876Z,18.44
2018-08-07T02:01:31.863Z,18.58
2018-08-07T02:02:31.854Z,18.62
2018-08-07T02:03:31.841Z,18.70
2018-08-07T02:04:31.825Z,18.62
2018-08-07T02:05:31.815Z,18.65
2018-08-07T02:06:31.817Z,18.64
2018-08-07T02:07:31.783Z,18.54
2018-08-07T02:08:31.774Z,18.44
2018-08-07T02:09:31.756Z,18.39
2018-08-07T02:10:31.741Z,18.34
2018-08-07T02:11:31.738Z,18.24
2018-08-07T02:12:31.722Z,18.29
2018-08-07T02:13:31.708Z,18.29
2018-08-07T02:14:31.702Z,18.34
2018-08-07T02:15:31.687Z,18.37
2018-08-07T02:16:31.689Z,18.42
2018-08-07T02:17:31.648Z,18.43
2018-08-07T02:18:31.635Z,18.42
2018-08-07T02:19:31.625Z,18.46
2018-08-07T02:20:31.610Z,18.40
2018-08-07T02:21:31.600Z,18.44
2018-08-07T02:22:31.587Z,18.34
2018-08-07T02:23:31.570Z,18.28
2018-08-07T02:24:31.557Z,18.36
2018-08-07T02:25:31.544Z,18.27
2018-08-07T02:26:31.537Z,18.22
2018-08-07T02:27:31.523Z,18.19
2018-08-07T02:28:31.509Z,18.10
2018-08-07T02:29:31.494Z,17.99
2018-08-07T02:30:31.477Z,18.06
2018-08-07T02:31:31.468Z,18.06
2018-08-07T02:32:31.456Z,17.99
2018-08-07T02:33:31.445Z,18.03
2018-08-07T02:34:31.433Z,17.99
2018-08-07T02:35:31.407Z,17.99
2018-08-07T02:36:31.405Z,17.92
2018-08-07T02:37:31.387Z,17.92
2018-08-07T02:38:31.369Z,17.97
2018-08-07T02:39:31.363Z,17.88
2018-08-07T02:40:31.351Z,17.92
2018-08-07T02:41:31.336Z,17.82
2018-08-07T02:42:31.324Z,17.81
2018-08-07T02:43:31.305Z,17.82
2018-08-07T02:44:31.295Z,17.92
2018-08-07T02:45:31.272Z,17.82
2018-08-07T02:46:31.265Z,17.88
2018-08-07T02:47:31.249Z,17.81
2018-08-07T02:48:31.241Z,17.82
2018-08-07T02:49:31.224Z,17.82
2018-08-07T02:50:31.230Z,17.82
2018-08-07T02:51:31.195Z,17.87
2018-08-07T02:52:31.179Z,17.92
2018-08-07T02:53:31.166Z,17.94
2018-08-07T02:54:31.157Z,17.89
2018-08-07T02:55:31.144Z,17.97
2018-08-07T02:56:31.137Z,17.87
2018-08-07T02:57:31.131Z,17.87
2018-08-07T02:58:31.102Z,17.95
2018-08-07T02:59:31.087Z,18.00
2018-08-07T03:00:31.074Z,18.00
2018-08-07T03:01:31.064Z,18.03
2018-08-07T03:02:31.048Z,18.03
2018-08-07T03:03:31.042Z,18.12
2018-08-07T03:04:31.040Z,18.17
2018-08-07T03:05:31.037Z,18.21
2018-08-07T03:06:31.016Z,18.21
2018-08-07T03:07:30.981Z,18.24
2018-08-07T03:08:30.967Z,18.29
2018-08-07T03:09:30.954Z,18.33
2018-08-07T03:10:30.951Z,18.31
2018-08-07T03:11:30.926Z,18.19
2018-08-07T03:12:30.920Z,18.31
2018-08-07T03:13:30.893Z,18.17
2018-08-07T03:14:30.887Z,18.13
2018-08-07T03:15:30.865Z,18.15
2018-08-07T03:16:30.872Z,18.13
2018-08-07T03:17:30.839Z,18.17
2018-08-07T03:18:30.833Z,18.22
2018-08-07T03:19:30.824Z,18.34
2018-08-07T03:20:30.810Z,18.25
2018-08-07T03:21:30.796Z,18.29
2018-08-07T03:22:30.776Z,18.28
2018-08-07T03:23:30.762Z,18.31
2018-08-07T03:24:30.749Z,18.21
2018-08-07T03:25:30.735Z,18.31
2018-08-07T03:26:30.719Z,18.24
2018-08-07T03:27:30.713Z,18.40
2018-08-07T03:28:30.694Z,18.28
2018-08-07T03:29:30.680Z,18.33
2018-08-07T03:30:30.675Z,18.31
2018-08-07T03:31:30.652Z,18.31
2018-08-07T03:32:30.646Z,18.28
2018-08-07T03:33:30.627Z,18.40
2018-08-07T03:34:30.614Z,18.36
2018-08-07T03:35:30.604Z,18.40
2018-08-07T03:36:30.591Z,18.37
2018-08-07T03:37:30.569Z,18.46
2018-08-07T03:38:30.563Z,18.44
2018-08-07T03:39:30.546Z,18.44
2018-08-07T03:40:30.537Z,18.43
2018-08-07T03:41:30.544Z,18.42
2018-08-07T03:42:30.505Z,18.37
2018-08-07T03:43:30.493Z,18.37
2018-08-07T03:44:30.482Z,18.44
2018-08-07T03:45:30.467Z,18.36
2018-08-07T03:46:30.451Z,18.42
2018-08-07T03:47:30.434Z,18.57
2018-08-07T03:48:30.425Z,18.59
2018-08-07T03:49:30.438Z,18.55
2018-08-07T03:50:30.403Z,18.59
2018-08-07T03:51:30.386Z,18.58
2018-08-07T03:52:30.371Z,18.54
2018-08-07T03:53:30.358Z,18.59
2018-08-07T03:54:30.346Z,18.55
2018-08-07T03:55:30.330Z,18.59
2018-08-07T03:56:30.313Z,18.46
2018-08-07T03:57:30.304Z,18.42
2018-08-07T03:58:30.285Z,18.37
2018-08-07T03:59:30.272Z,18.43
2018-08-07T04:00:30.268Z,18.36
2018-08-07T04:01:30.249Z,18.42
2018-08-07T04:02:30.252Z,18.28
2018-08-07T04:03:30.220Z,18.34
2018-08-07T04:04:30.201Z,18.28
2018-08-07T04:05:30.202Z,18.24
2018-08-07T04:06:30.182Z,18.29
2018-08-07T04:07:30.165Z,18.15
2018-08-07T04:08:30.149Z,18.06
2018-08-07T04:09:30.135Z,18.09
2018-08-07T04:10:30.132Z,18.04
2018-08-07T04:11:30.162Z,17.99
2018-08-07T04:12:30.100Z,17.99
2018-08-07T04:13:30.088Z,18.02
2018-08-07T04:14:30.068Z,17.97
2018-08-07T04:15:30.058Z,17.95
2018-08-07T04:16:30.040Z,17.99
2018-08-07T04:17:30.030Z,18.03
2018-08-07T04:18:30.019Z,17.99
2018-08-07T04:19:30.006Z,18.02
2018-08-07T04:20:29.998Z,17.92
2018-08-07T04:21:29.975Z,17.95
2018-08-07T04:22:29.991Z,17.88
2018-08-07T04:23:29.950Z,17.94
2018-08-07T04:24:29.936Z,17.87
2018-08-07T04:25:29.931Z,17.91
2018-08-07T04:26:29.908Z,17.92
2018-08-07T04:27:29.899Z,17.99
2018-08-07T04:28:29.880Z,17.94
2018-08-07T04:29:29.864Z,17.91
2018-08-07T04:30:29.870Z,17.91
2018-08-07T04:31:29.844Z,17.85
2018-08-07T04:32:29.839Z,17.85
2018-08-07T04:33:29.809Z,17.81
2018-08-07T04:34:29.868Z,17.87
2018-08-07T04:35:29.787Z,17.82
2018-08-07T04:36:29.769Z,17.94
2018-08-07T04:37:29.760Z,17.91
2018-08-07T04:38:29.751Z,17.88
2018-08-07T04:39:29.728Z,17.99
2018-08-07T04:40:29.728Z,18.00
2018-08-07T04:41:29.708Z,18.00
2018-08-07T04:42:29.692Z,18.03
2018-08-07T04:43:29.686Z,18.04
2018-08-07T04:44:29.664Z,18.04
2018-08-07T04:45:29.655Z,18.03
2018-08-07T04:46:29.638Z,18.02
2018-08-07T04:47:29.626Z,18.10
2018-08-07T04:48:29.613Z,18.03
2018-08-07T04:49:29.610Z,18.12
2018-08-07T04:50:29.591Z,18.09
2018-08-07T04:51:29.572Z,18.07
2018-08-07T04:52:29.559Z,18.17
2018-08-07T04:53:29.553Z,18.22
2018-08-07T04:54:29.528Z,18.27
2018-08-07T04:55:29.518Z,18.18
2018-08-07T04:56:29.503Z,18.21
2018-08-07T04:57:29.486Z,18.31
2018-08-07T04:58:29.482Z,18.39
2018-08-07T04:59:29.476Z,18.36
2018-08-07T05:00:29.460Z,18.27
2018-08-07T05:01:29.446Z,18.36
2018-08-07T05:02:29.422Z,18.33
2018-08-07T05:03:29.416Z,18.37
2018-08-07T05:04:29.402Z,18.39
2018-08-07T05:05:29.387Z,18.44
2018-08-07T05:06:29.374Z,18.42
2018-08-07T05:07:29.367Z,18.47
2018-08-07T05:08:29.354Z,18.55
2018-08-07T05:09:29.334Z,18.59
2018-08-07T05:10:29.369Z,18.65
2018-08-07T05:11:29.306Z,18.74
2018-08-07T05:12:29.287Z,18.80
2018-08-07T05:13:29.281Z,18.86
2018-08-07T05:14:29.261Z,18.83
2018-08-07T05:15:29.261Z,18.97
2018-08-07T05:16:29.242Z,18.98
2018-08-07T05:17:29.227Z,18.99
2018-08-07T05:18:29.216Z,19.01
2018-08-07T05:19:29.201Z,19.02
2018-08-07T05:20:29.185Z,19.08
2018-08-07T05:21:29.170Z,19.13
2018-08-07T05:22:29.161Z,19.17
2018-08-07T05:23:29.151Z,19.15
2018-08-07T05:24:29.136Z,19.32
2018-08-07T05:25:29.139Z,19.31
2018-08-07T05:26:29.115Z,19.25
2018-08-07T05:27:29.113Z,19.28
2018-08-07T05:28:29.081Z,19.36
2018-08-07T05:29:29.071Z,19.47
2018-08-07T05:30:29.071Z,19.47
2018-08-07T05:31:29.046Z,19.55
2018-08-07T05:32:29.078Z,19.73
2018-08-07T05:33:29.023Z,19.91
2018-08-07T05:34:29.008Z,20.20
2018-08-07T05:35:29.001Z,20.28
2018-08-07T05:36:28.988Z,20.42
2018-08-07T05:37:28.969Z,20.59
2018-08-07T05:38:28.966Z,20.81
2018-08-07T05:39:28.946Z,20.86
2018-08-07T05:40:28.965Z,20.95
2018-08-07T05:41:28.924Z,20.99
2018-08-07T05:42:28.992Z,20.98
2018-08-07T05:43:28.898Z,20.86
2018-08-07T05:44:28.889Z,20.84
2018-08-07T05:45:28.883Z,20.90
2018-08-07T05:46:28.889Z,20.98
2018-08-07T05:47:28.847Z,20.93
2018-08-07T05:48:28.858Z,20.93
2018-08-07T05:49:28.844Z,20.95
2018-08-07T05:50:28.940Z,20.87
2018-08-07T05:51:28.824Z,20.86
2018-08-07T05:52:28.800Z,20.84
2018-08-07T05:53:28.777Z,20.79
2018-08-07T05:54:28.767Z,20.87
2018-08-07T05:55:28.755Z,20.95
2018-08-07T05:56:28.759Z,20.98
2018-08-07T05:57:28.735Z,20.99
2018-08-07T05:58:28.732Z,21.24
2018-08-07T05:59:28.703Z,21.29
2018-08-07T06:00:28.700Z,21.38
2018-08-07T06:01:28.687Z,21.53
2018-08-07T06:02:28.678Z,21.56
2018-08-07T06:03:28.665Z,21.59
2018-08-07T06:04:28.646Z,21.59
2018-08-07T06:05:28.659Z,21.56
2018-08-07T06:06:28.633Z,21.51
2018-08-07T06:07:28.611Z,21.53
2018-08-07T06:08:28.604Z,21.61
2018-08-07T06:09:28.594Z,21.83
2018-08-07T06:10:28.591Z,22.09
2018-08-07T06:11:28.572Z,22.20
2018-08-07T06:12:28.565Z,22.44
2018-08-07T06:13:28.554Z,22.60
2018-08-07T06:14:28.539Z,22.71
2018-08-07T06:15:28.545Z,22.86
2018-08-07T06:16:28.510Z,22.90
2018-08-07T06:17:28.501Z,22.99
2018-08-07T06:18:28.497Z,23.07
2018-08-07T06:19:28.489Z,23.09
2018-08-07T06:20:28.476Z,23.19
2018-08-07T06:21:28.463Z,23.39
2018-08-07T06:22:28.454Z,23.50
2018-08-07T06:23:28.446Z,23.70
2018-08-07T06:24:28.434Z,23.86
2018-08-07T06:25:28.433Z,23.97
2018-08-07T06:26:28.408Z,24.22
2018-08-07T06:27:28.419Z,24.34
2018-08-07T06:28:28.417Z,24.47
2018-08-07T06:29:28.376Z,24.64
2018-08-07T06:30:28.376Z,24.75
2018-08-07T06:31:28.416Z,24.85
2018-08-07T06:32:28.343Z,24.98
2018-08-07T06:33:28.342Z,25.01
2018-08-07T06:34:28.321Z,25.12
2018-08-07T06:35:28.314Z,25.19
2018-08-07T06:36:28.317Z,25.35
2018-08-07T06:37:28.301Z,25.28
2018-08-07T06:38:28.282Z,25.39
2018-08-07T06:39:28.279Z,25.52
2018-08-07T06:40:28.262Z,25.50
2018-08-07T06:41:28.260Z,25.64
2018-08-07T06:42:28.256Z,25.71
2018-08-07T06:43:28.269Z,25.79
2018-08-07T06:44:28.234Z,25.98
2018-08-07T06:45:28.218Z,26.01
2018-08-07T06:46:28.214Z,26.25
2018-08-07T06:47:28.199Z,26.31
2018-08-07T06:48:28.216Z,26.39
2018-08-07T06:49:28.189Z,26.57
2018-08-07T06:50:28.173Z,26.76
2018-08-07T06:51:28.171Z,26.83
2018-08-07T06:52:28.183Z,26.94
2018-08-07T06:53:28.158Z,27.21
2018-08-07T06:54:28.141Z,27.46
2018-08-07T06:55:28.132Z,27.67
2018-08-07T06:56:28.148Z,27.89
2018-08-07T06:57:28.116Z,27.94
2018-08-07T06:58:28.116Z,27.89
2018-08-07T06:59:28.103Z,27.92
2018-08-07T07:00:28.094Z,28.01
2018-08-07T07:01:28.090Z,28.06
2018-08-07T07:02:28.077Z,27.89
2018-08-07T07:03:28.078Z,27.94
2018-08-07T07:04:28.065Z,28.16
2018-08-07T07:05:28.065Z,28.11
2018-08-07T07:06:28.051Z,27.82
2018-08-07T07:07:28.059Z,27.71
2018-08-07T07:08:28.042Z,27.91
2018-08-07T07:09:28.054Z,27.88
2018-08-07T07:10:28.089Z,27.95
2018-08-07T07:11:28.023Z,28.09
2018-08-07T07:12:28.013Z,28.04
2018-08-07T07:13:28.010Z,27.96
2018-08-07T07:14:28.000Z,28.03
2018-08-07T07:15:27.994Z,28.07
2018-08-07T07:16:27.990Z,27.88
2018-08-07T07:17:27.981Z,27.85
2018-08-07T07:18:27.990Z,27.80
2018-08-07T07:19:27.965Z,27.71
2018-08-07T07:20:27.969Z,27.73
2018-08-07T07:21:27.952Z,27.79
2018-08-07T07:22:27.959Z,27.95
2018-08-07T07:23:27.956Z,28.01
2018-08-07T07:24:27.939Z,27.96
2018-08-07T07:25:27.927Z,28.21
2018-08-07T07:26:27.927Z,28.23
2018-08-07T07:27:27.914Z,28.40
2018-08-07T07:28:27.917Z,28.47
2018-08-07T07:29:27.908Z,28.59
2018-08-07T07:30:27.898Z,28.69
2018-08-07T07:31:27.892Z,28.90
2018-08-07T07:32:27.889Z,29.04
2018-08-07T07:33:27.889Z,29.19
2018-08-07T07:34:27.952Z,29.20
2018-08-07T07:35:27.870Z,29.50
2018-08-07T07:36:27.863Z,29.59
2018-08-07T07:37:27.863Z,29.56
2018-08-07T07:38:27.862Z,29.78
2018-08-07T07:39:27.847Z,30.27
2018-08-07T07:40:27.841Z,30.56
2018-08-07T07:41:27.860Z,31.02
2018-08-07T07:42:27.838Z,31.23
2018-08-07T07:43:27.831Z,31.64
2018-08-07T07:44:27.821Z,32.05
2018-08-07T07:45:27.815Z,32.14
2018-08-07T07:46:27.815Z,32.52
2018-08-07T07:47:27.815Z,32.91
2018-08-07T07:48:27.803Z,33.42
2018-08-07T07:49:27.803Z,33.58
2018-08-07T07:50:27.802Z,33.79
2018-08-07T07:51:28.591Z,33.29
2018-08-07T07:52:27.789Z,32.85
2018-08-07T07:53:27.790Z,32.43
2018-08-07T07:54:27.783Z,32.00
2018-08-07T07:55:27.772Z,32.58
2018-08-07T07:56:27.780Z,32.76
2018-08-07T07:57:27.771Z,32.96
2018-08-07T07:58:27.771Z,33.31
2018-08-07T07:59:27.762Z,33.64
2018-08-07T08:00:27.768Z,33.80
2018-08-07T08:01:27.758Z,34.16
2018-08-07T08:02:27.746Z,34.32
2018-08-07T08:03:27.742Z,34.17
2018-08-07T08:04:27.750Z,34.11
2018-08-07T08:05:27.767Z,33.82
2018-08-07T08:06:27.740Z,33.67
2018-08-07T08:07:27.730Z,33.51
2018-08-07T08:08:27.730Z,33.52
2018-08-07T08:09:27.720Z,33.37
2018-08-07T08:10:27.749Z,33.08
2018-08-07T08:11:27.724Z,33.08
2018-08-07T08:12:27.717Z,32.95
2018-08-07T08:13:27.717Z,32.88
2018-08-07T08:14:27.712Z,33.29
2018-08-07T08:15:27.710Z,33.58
2018-08-07T08:16:27.738Z,33.67
2018-08-07T08:17:27.701Z,33.87
2018-08-07T08:18:27.698Z,33.94
2018-08-07T08:19:27.695Z,34.19
2018-08-07T08:20:27.691Z,34.44
2018-08-07T08:21:27.682Z,34.50
2018-08-07T08:22:27.688Z,34.58
2018-08-07T08:23:27.685Z,34.77
2018-08-07T08:24:27.685Z,34.63
2018-08-07T08:25:27.682Z,34.64
2018-08-07T08:26:27.674Z,34.81
2018-08-07T08:27:27.676Z,34.79
2018-08-07T08:28:27.669Z,34.66
2018-08-07T08:29:27.816Z,34.48
2018-08-07T08:30:27.671Z,34.46
2018-08-07T08:31:27.679Z,34.44
2018-08-07T08:32:27.657Z,34.09
2018-08-07T08:33:27.661Z,33.97
2018-08-07T08:34:27.656Z,33.57
2018-08-07T08:35:27.716Z,33.22
2018-08-07T08:36:27.651Z,32.88
2018-08-07T08:37:27.650Z,32.98
2018-08-07T08:38:27.647Z,33.17
2018-08-07T08:39:27.644Z,33.37
2018-08-07T08:40:27.647Z,33.58
2018-08-07T08:41:27.650Z,33.82
2018-08-07T08:42:27.634Z,33.79
2018-08-07T08:43:27.635Z,33.80
2018-08-07T08:44:27.637Z,33.97
2018-08-07T08:45:27.625Z,34.04
2018-08-07T08:46:27.628Z,34.11
2018-08-07T08:47:27.631Z,34.31
2018-08-07T08:48:27.624Z,34.60
2018-08-07T08:49:27.619Z,34.84
2018-08-07T08:50:27.695Z,34.96
2018-08-07T08:51:27.618Z,35.01
2018-08-07T08:52:27.613Z,35.01
2018-08-07T08:53:27.605Z,35.14
2018-08-07T08:54:27.612Z,35.33
2018-08-07T08:55:27.645Z,35.40
2018-08-07T08:56:27.605Z,35.17
2018-08-07T08:57:27.605Z,35.17
2018-08-07T08:58:27.596Z,35.06
2018-08-07T08:59:27.596Z,34.99
2018-08-07T09:00:27.593Z,34.92
2018-08-07T09:01:27.595Z,34.88
2018-08-07T09:02:27.590Z,34.86
2018-08-07T09:03:27.583Z,34.94
2018-08-07T09:04:27.589Z,35.29
2018-08-07T09:05:27.580Z,35.25
2018-08-07T09:06:27.583Z,35.23
2018-08-07T09:07:27.586Z,35.44
2018-08-07T09:08:27.580Z,35.44
2018-08-07T09:09:27.580Z,35.23
2018-08-07T09:10:27.623Z,35.45
2018-08-07T09:11:27.616Z,35.73
2018-08-07T09:12:27.576Z,35.66
2018-08-07T09:13:27.571Z,35.82
2018-08-07T09:14:27.561Z,35.73
2018-08-07T09:15:27.572Z,35.64
2018-08-07T09:16:27.565Z,35.74
2018-08-07T09:17:27.558Z,35.67
2018-08-07T09:18:27.565Z,35.64
2018-08-07T09:19:27.579Z,35.64
2018-08-07T09:20:27.583Z,35.66
2018-08-07T09:21:27.552Z,35.91
2018-08-07T09:22:27.552Z,35.69
2018-08-07T09:23:27.552Z,35.57
2018-08-07T09:24:27.545Z,35.72
2018-08-07T09:25:27.651Z,35.81
2018-08-07T09:26:27.542Z,35.92
2018-08-07T09:27:27.549Z,36.01
2018-08-07T09:28:27.539Z,36.08
2018-08-07T09:29:27.542Z,35.73
2018-08-07T09:30:27.532Z,35.73
2018-08-07T09:31:27.539Z,35.81
2018-08-07T09:32:27.539Z,36.04
2018-08-07T09:33:27.533Z,36.06
2018-08-07T09:34:27.543Z,35.86
2018-08-07T09:35:27.546Z,35.73
2018-08-07T09:36:27.526Z,35.74
2018-08-07T09:37:27.524Z,35.74
2018-08-07T09:38:27.523Z,35.76
2018-08-07T09:39:27.540Z,35.86
2018-08-07T09:40:27.520Z,35.76
2018-08-07T09:41:27.526Z,35.82
2018-08-07T09:42:27.523Z,35.89
2018-08-07T09:43:27.516Z,36.07
2018-08-07T09:44:27.521Z,36.00
2018-08-07T09:45:27.516Z,36.07
2018-08-07T09:46:27.528Z,36.01
2018-08-07T09:47:27.510Z,36.15
2018-08-07T09:48:27.513Z,35.93
2018-08-07T09:49:27.507Z,35.88
2018-08-07T09:50:27.507Z,35.67
2018-08-07T09:51:27.510Z,35.74
2018-08-07T09:52:27.566Z,35.76
2018-08-07T09:53:27.501Z,35.79
2018-08-07T09:54:27.507Z,35.74
2018-08-07T09:55:27.503Z,35.72
2018-08-07T09:56:27.497Z,35.73
2018-08-07T09:57:27.500Z,35.92
2018-08-07T09:58:27.538Z,36.19
2018-08-07T09:59:27.491Z,36.04
2018-08-07T10:00:27.497Z,36.29
2018-08-07T10:01:27.497Z,36.21
2018-08-07T10:02:27.494Z,36.26
2018-08-07T10:03:27.491Z,36.33
2018-08-07T10:04:27.491Z,36.15
2018-08-07T10:05:27.592Z,36.00
2018-08-07T10:06:27.487Z,35.97
2018-08-07T10:07:27.481Z,35.95
2018-08-07T10:08:27.491Z,35.95
2018-08-07T10:09:27.481Z,36.20
2018-08-07T10:10:27.481Z,36.38
2018-08-07T10:11:27.481Z,36.56
2018-08-07T10:12:27.521Z,36.57
2018-08-07T10:13:27.475Z,36.45
2018-08-07T10:14:27.475Z,36.39
2018-08-07T10:15:27.482Z,36.51
2018-08-07T10:16:27.481Z,36.52
2018-08-07T10:17:27.476Z,36.45
2018-08-07T10:18:27.479Z,36.63
2018-08-07T10:19:27.478Z,36.70
2018-08-07T10:20:27.481Z,36.77
2018-08-07T10:21:27.474Z,36.70
2018-08-07T10:22:27.472Z,36.80
2018-08-07T10:23:27.475Z,37.07
2018-08-07T10:24:27.485Z,36.86
2018-08-07T10:25:27.472Z,36.65
2018-08-07T10:26:27.482Z,36.77
2018-08-07T10:27:27.475Z,36.83
2018-08-07T10:28:27.474Z,36.87
2018-08-07T10:29:27.482Z,37.01
2018-08-07T10:30:27.540Z,37.13
2018-08-07T10:31:27.489Z,37.21
2018-08-07T10:32:27.503Z,37.21
2018-08-07T10:33:27.487Z,37.21
2018-08-07T10:34:27.481Z,36.98
2018-08-07T10:35:27.488Z,36.97
2018-08-07T10:36:27.484Z,36.72
2018-08-07T10:37:27.491Z,36.75
2018-08-07T10:38:27.500Z,36.92
2018-08-07T10:39:27.492Z,36.90
2018-08-07T10:40:27.496Z,36.83
2018-08-07T10:41:27.525Z,36.73
2018-08-07T10:42:27.498Z,36.86
2018-08-07T10:43:27.591Z,36.90
2018-08-07T10:44:27.504Z,36.72
2018-08-07T10:45:27.510Z,36.82
2018-08-07T10:46:27.575Z,36.97
2018-08-07T10:47:27.510Z,37.31
2018-08-07T10:48:27.510Z,37.19
2018-08-07T10:49:27.520Z,37.35
2018-08-07T10:50:27.516Z,37.55
2018-08-07T10:51:27.529Z,37.01
2018-08-07T10:52:27.520Z,37.29
2018-08-07T10:53:27.519Z,37.42
2018-08-07T10:54:27.533Z,37.47
2018-08-07T10:55:27.533Z,37.43
2018-08-07T10:56:27.583Z,37.14
2018-08-07T10:57:27.539Z,37.23
2018-08-07T10:58:27.593Z,37.26
2018-08-07T10:59:27.542Z,37.05
2018-08-07T11:00:27.558Z,36.90
2018-08-07T11:01:27.552Z,36.82
2018-08-07T11:02:27.552Z,36.65
2018-08-07T11:03:27.552Z,36.61
2018-08-07T11:04:27.562Z,36.52
2018-08-07T11:05:27.568Z,36.29
2018-08-07T11:06:27.558Z,36.20
2018-08-07T11:07:27.564Z,35.97
2018-08-07T11:08:27.575Z,35.88
2018-08-07T11:09:27.615Z,36.03
2018-08-07T11:10:27.620Z,35.95
2018-08-07T11:11:27.571Z,35.84
2018-08-07T11:12:27.571Z,35.66
2018-08-07T11:13:27.571Z,35.69
2018-08-07T11:14:27.579Z,36.00
2018-08-07T11:15:27.573Z,36.29
2018-08-07T11:16:27.583Z,36.07
2018-08-07T11:17:27.573Z,35.93
2018-08-07T11:18:27.574Z,35.74
2018-08-07T11:19:27.576Z,35.74
2018-08-07T11:20:27.576Z,35.76
2018-08-07T11:21:27.576Z,35.84
2018-08-07T11:22:27.581Z,35.86
2018-08-07T11:23:27.583Z,36.11
2018-08-07T11:24:27.621Z,36.06
2018-08-07T11:25:27.583Z,36.21
2018-08-07T11:26:27.583Z,36.06
2018-08-07T11:27:27.585Z,36.14
2018-08-07T11:28:27.580Z,35.88
2018-08-07T11:29:27.583Z,36.03
2018-08-07T11:30:27.584Z,36.41
2018-08-07T11:31:27.590Z,36.48
2018-08-07T11:32:27.589Z,36.61
2018-08-07T11:33:27.590Z,36.64
2018-08-07T11:34:27.587Z,36.43
2018-08-07T11:35:27.590Z,36.76
2018-08-07T11:36:27.590Z,37.17
2018-08-07T11:37:27.593Z,37.54
2018-08-07T11:38:27.599Z,37.89
2018-08-07T11:39:27.609Z,38.08
2018-08-07T11:40:27.603Z,38.39
2018-08-07T11:41:27.679Z,38.57
2018-08-07T11:42:27.609Z,38.61
2018-08-07T11:43:27.612Z,38.60
2018-08-07T11:44:27.622Z,38.41
2018-08-07T11:45:27.625Z,38.24
2018-08-07T11:46:27.625Z,38.05
2018-08-07T11:47:27.633Z,37.89
2018-08-07T11:48:27.635Z,37.67
2018-08-07T11:49:27.636Z,37.59
2018-08-07T11:50:27.638Z,37.77
2018-08-07T11:51:27.649Z,38.12
2018-08-07T11:52:27.648Z,38.58
2018-08-07T11:53:27.660Z,38.64
2018-08-07T11:54:27.654Z,38.75
2018-08-07T11:55:27.667Z,38.66
2018-08-07T11:56:27.666Z,38.53
2018-08-07T11:57:27.670Z,38.22
2018-08-07T11:58:27.678Z,37.90
2018-08-07T11:59:27.683Z,37.74
2018-08-07T12:00:27.686Z,37.76
2018-08-07T12:01:27.696Z,37.64
2018-08-07T12:02:27.716Z,37.36
2018-08-07T12:03:27.705Z,37.61
2018-08-07T12:04:27.708Z,38.05
2018-08-07T12:05:27.713Z,38.15
2018-08-07T12:06:27.718Z,38.48
2018-08-07T12:07:27.719Z,38.64
2018-08-07T12:08:27.721Z,38.53
2018-08-07T12:09:27.725Z,38.63
2018-08-07T12:10:27.734Z,38.22
2018-08-07T12:11:27.738Z,38.10
2018-08-07T12:12:27.738Z,37.88
2018-08-07T12:13:27.742Z,37.99
2018-08-07T12:14:27.756Z,38.01
2018-08-07T12:15:27.757Z,37.64
2018-08-07T12:16:27.757Z,37.24
2018-08-07T12:17:27.766Z,37.01
2018-08-07T12:18:27.763Z,37.10
2018-08-07T12:19:27.781Z,36.92
2018-08-07T12:20:27.769Z,36.75
2018-08-07T12:21:27.774Z,36.43
2018-08-07T12:22:27.778Z,36.30
2018-08-07T12:23:27.788Z,36.27
2018-08-07T12:24:27.785Z,36.68
2018-08-07T12:25:27.787Z,37.04
2018-08-07T12:26:27.784Z,37.43
2018-08-07T12:27:27.794Z,37.74
2018-08-07T12:28:27.799Z,37.99
2018-08-07T12:29:27.797Z,37.68
2018-08-07T12:30:27.808Z,37.77
2018-08-07T12:31:27.798Z,38.12
2018-08-07T12:32:27.804Z,38.79
2018-08-07T12:33:27.810Z,39.05
2018-08-07T12:34:27.810Z,39.05
2018-08-07T12:35:27.819Z,38.52
2018-08-07T12:36:27.820Z,38.24
2018-08-07T12:37:27.829Z,37.96
2018-08-07T12:38:27.826Z,37.88
2018-08-07T12:39:27.833Z,37.66
2018-08-07T12:40:27.842Z,37.66
2018-08-07T12:41:27.846Z,37.80
2018-08-07T12:42:27.849Z,37.78
2018-08-07T12:43:27.845Z,37.47
2018-08-07T12:44:27.858Z,37.31
2018-08-07T12:45:27.858Z,37.47
2018-08-07T12:46:27.902Z,37.89
2018-08-07T12:47:27.900Z,37.62
2018-08-07T12:48:27.865Z,37.71
2018-08-07T12:49:27.945Z,37.73
2018-08-07T12:50:27.877Z,37.95
2018-08-07T12:51:27.875Z,38.27
2018-08-07T12:52:27.887Z,38.36